Terminal Aerodrome Forecast
Issued by NWS Memphis, TN

Home | Current Version | Previous Version | Text Only | Print | Product List | Glossary On
Versions: 1 2 3 4 5 6 7 8 9 10 11 12 13 14 15 16 17 18 19
000
FTUS44 KMEG 311120
TAFMKL
TAF
KMKL 311120Z 3112/0112 00000KT 3SM BR OVC010
      TEMPO 3111/3113 1/2SM FG VV003
     FM311600 13007KT P6SM SCT030 SCT250
     FM010600 13004KT P6SM SCT250=

USA.gov is the U.S. government's official web portal to all federal, state and local government web resources and services.